sensor_id;sensor_type;location;lat;lon;timestamp;P1;durP1;ratioP1;P2;durP2;ratioP2
40012;SDS011;37387;42.672;23.334;2023-02-27T00:00:41;29.1;;;11.3;;
40012;SDS011;37387;42.672;23.334;2023-02-27T00:01:41;29.1;;;8.6;;
40012;SDS011;37387;42.672;23.334;2023-02-27T00:02:41;28.4;;;9.1;;
40012;SDS011;37387;42.672;23.334;2023-02-27T00:03:41;21.8;;;7.9;;
40012;SDS011;37387;42.672;23.334;2023-02-27T00:04:41;23.3;;;7.5;;
40012;SDS011;37387;42.672;23.334;2023-02-27T00:05:41;20.6;;;7.0;;
40012;SDS011;37387;42.672;23.334;2023-02-27T00:06:41;20.6;;;8.9;;
40012;SDS011;37387;42.672;23.334;2023-02-27T00:07:41;23.9;;;7.5;;
40012;SDS011;37387;42.672;23.334;2023-02-27T00:08:41;24.7;;;8.0;;
40012;SDS011;37387;42.672;23.334;2023-02-27T00:09:41;23.0;;;7.3;;
40012;SDS011;37387;42.672;23.334;2023-02-27T00:10:41;22.3;;;6.6;;
40012;SDS011;37387;42.672;23.334;2023-02-27T00:11:41;29.4;;;7.4;;
40012;SDS011;37387;42.672;23.334;2023-02-27T00:12:41;25.4;;;7.7;;
40012;SDS011;37387;42.672;23.334;2023-02-27T00:13:41;25.4;;;7.2;;
40012;SDS011;37387;42.672;23.334;2023-02-27T00:14:40;26.7;;;9.5;;
40012;SDS011;37387;42.672;23.334;2023-02-27T00:16:41;23.2;;;8.2;;
40012;SDS011;37387;42.672;23.334;2023-02-27T00:17:41;23.2;;;7.8;;
40012;SDS011;37387;42.672;23.334;2023-02-27T00:18:41;24.7;;;7.9;;
40012;SDS011;37387;42.672;23.334;2023-02-27T00:19:41;25.6;;;7.5;;
40012;SDS011;37387;42.672;23.334;2023-02-27T00:20:41;26.7;;;8.7;;
40012;SDS011;37387;42.672;23.334;2023-02-27T00:21:41;20.5;;;8.2;;
40012;SDS011;37387;42.672;23.334;2023-02-27T00:22:41;20.5;;;8.8;;
40012;SDS011;37387;42.672;23.334;2023-02-27T00:23:41;25.7;;;7.8;;
40012;SDS011;37387;42.672;23.334;2023-02-27T00:24:40;26.8;;;8.0;;
40012;SDS011;37387;42.672;23.334;2023-02-27T00:25:40;26.8;;;7.2;;
40012;SDS011;37387;42.672;23.334;2023-02-27T00:26:40;23.1;;;8.2;;
40012;SDS011;37387;42.672;23.334;2023-02-27T00:27:40;19.8;;;6.6;;
40012;SDS011;37387;42.672;23.334;2023-02-27T00:28:40;20.0;;;7.6;;
40012;SDS011;37387;42.672;23.334;2023-02-27T00:29:40;24.0;;;8.0;;
40012;SDS011;37387;42.672;23.334;2023-02-27T00:30:40;25.9;;;8.3;;
40012;SDS011;37387;42.672;23.334;2023-02-27T00:31:40;25.9;;;8.6;;
40012;SDS011;37387;42.672;23.334;2023-02-27T00:32:40;22.2;;;7.0;;
40012;SDS011;37387;42.672;23.334;2023-02-27T00:34:40;24.9;;;7.3;;
40012;SDS011;37387;42.672;23.334;2023-02-27T00:35:40;30.3;;;8.5;;
40012;SDS011;37387;42.672;23.334;2023-02-27T00:36:40;23.1;;;7.1;;
40012;SDS011;37387;42.672;23.334;2023-02-27T00:37:40;22.8;;;7.4;;
40012;SDS011;37387;42.672;23.334;2023-02-27T00:38:40;22.8;;;7.9;;
40012;SDS011;37387;42.672;23.334;2023-02-27T00:39:40;28.0;;;8.6;;
40012;SDS011;37387;42.672;23.334;2023-02-27T00:40:40;28.0;;;8.3;;
40012;SDS011;37387;42.672;23.334;2023-02-27T00:41:40;28.0;;;7.9;;
40012;SDS011;37387;42.672;23.334;2023-02-27T00:42:40;23.9;;;6.1;;
40012;SDS011;37387;42.672;23.334;2023-02-27T00:43:40;24.6;;;7.2;;
40012;SDS011;37387;42.672;23.334;2023-02-27T00:44:40;22.6;;;7.9;;
40012;SDS011;37387;42.672;23.334;2023-02-27T00:46:40;27.3;;;7.7;;
40012;SDS011;37387;42.672;23.334;2023-02-27T00:47:40;22.6;;;6.8;;
40012;SDS011;37387;42.672;23.334;2023-02-27T00:48:40;21.6;;;7.8;;
40012;SDS011;37387;42.672;23.334;2023-02-27T00:49:40;23.0;;;8.1;;
40012;SDS011;37387;42.672;23.334;2023-02-27T00:50:40;24.5;;;6.7;;
40012;SDS011;37387;42.672;23.334;2023-02-27T00:52:40;30.5;;;7.9;;
40012;SDS011;37387;42.672;23.334;2023-02-27T00:53:40;23.7;;;6.9;;
40012;SDS011;37387;42.672;23.334;2023-02-27T00:54:40;26.0;;;6.0;;
40012;SDS011;37387;42.672;23.334;2023-02-27T00:55:40;18.4;;;6.3;;
40012;SDS011;37387;42.672;23.334;2023-02-27T00:56:40;27.3;;;7.6;;
40012;SDS011;37387;42.672;23.334;2023-02-27T00:57:40;22.2;;;7.1;;
40012;SDS011;37387;42.672;23.334;2023-02-27T00:58:40;24.8;;;7.5;;
40012;SDS011;37387;42.672;23.334;2023-02-27T00:59:40;26.0;;;6.9;;
40012;SDS011;37387;42.672;23.334;2023-02-27T01:00:40;24.8;;;7.6;;
40012;SDS011;37387;42.672;23.334;2023-02-27T01:01:40;28.3;;;8.1;;
40012;SDS011;37387;42.672;23.334;2023-02-27T01:02:40;29.0;;;8.6;;
40012;SDS011;37387;42.672;23.334;2023-02-27T01:03:40;25.6;;;8.0;;
40012;SDS011;37387;42.672;23.334;2023-02-27T01:04:40;25.6;;;9.3;;
40012;SDS011;37387;42.672;23.334;2023-02-27T01:05:40;25.6;;;9.0;;
40012;SDS011;37387;42.672;23.334;2023-02-27T01:06:40;30.0;;;8.8;;
40012;SDS011;37387;42.672;23.334;2023-02-27T01:08:40;27.2;;;8.4;;
40012;SDS011;37387;42.672;23.334;2023-02-27T01:09:40;26.5;;;8.8;;
40012;SDS011;37387;42.672;23.334;2023-02-27T01:10:40;24.5;;;8.5;;
40012;SDS011;37387;42.672;23.334;2023-02-27T01:11:40;24.5;;;8.7;;
40012;SDS011;37387;42.672;23.334;2023-02-27T01:12:40;27.3;;;8.2;;
40012;SDS011;37387;42.672;23.334;2023-02-27T01:13:40;22.1;;;9.1;;
40012;SDS011;37387;42.672;23.334;2023-02-27T01:14:40;29.7;;;7.9;;
40012;SDS011;37387;42.672;23.334;2023-02-27T01:15:39;26.9;;;8.7;;
40012;SDS011;37387;42.672;23.334;2023-02-27T01:16:39;24.0;;;8.4;;
40012;SDS011;37387;42.672;23.334;2023-02-27T01:17:39;24.0;;;8.3;;
40012;SDS011;37387;42.672;23.334;2023-02-27T01:18:39;22.4;;;8.5;;
40012;SDS011;37387;42.672;23.334;2023-02-27T01:19:39;22.4;;;8.4;;
40012;SDS011;37387;42.672;23.334;2023-02-27T01:20:39;30.3;;;8.1;;
40012;SDS011;37387;42.672;23.334;2023-02-27T01:21:39;30.8;;;8.7;;
40012;SDS011;37387;42.672;23.334;2023-02-27T01:22:39;30.8;;;8.8;;
40012;SDS011;37387;42.672;23.334;2023-02-27T01:23:39;26.4;;;8.5;;
40012;SDS011;37387;42.672;23.334;2023-02-27T01:24:39;28.5;;;8.0;;
40012;SDS011;37387;42.672;23.334;2023-02-27T01:25:39;23.7;;;8.1;;
40012;SDS011;37387;42.672;23.334;2023-02-27T01:26:39;27.3;;;9.0;;
40012;SDS011;37387;42.672;23.334;2023-02-27T01:27:39;23.0;;;8.3;;
40012;SDS011;37387;42.672;23.334;2023-02-27T01:28:39;29.0;;;8.1;;
40012;SDS011;37387;42.672;23.334;2023-02-27T01:29:39;29.0;;;8.2;;
40012;SDS011;37387;42.672;23.334;2023-02-27T01:31:39;27.7;;;7.9;;
40012;SDS011;37387;42.672;23.334;2023-02-27T01:32:40;27.7;;;8.3;;
40012;SDS011;37387;42.672;23.334;2023-02-27T01:33:39;25.7;;;7.9;;
40012;SDS011;37387;42.672;23.334;2023-02-27T01:34:39;21.8;;;8.3;;
40012;SDS011;37387;42.672;23.334;2023-02-27T01:35:39;25.4;;;8.6;;
40012;SDS011;37387;42.672;23.334;2023-02-27T01:36:39;24.0;;;7.8;;
40012;SDS011;37387;42.672;23.334;2023-02-27T01:37:39;27.2;;;8.5;;
40012;SDS011;37387;42.672;23.334;2023-02-27T01:38:39;26.1;;;7.5;;
40012;SDS011;37387;42.672;23.334;2023-02-27T01:39:39;26.1;;;8.5;;
40012;SDS011;37387;42.672;23.334;2023-02-27T01:40:39;26.4;;;8.1;;
40012;SDS011;37387;42.672;23.334;2023-02-27T01:42:39;30.0;;;8.0;;
40012;SDS011;37387;42.672;23.334;2023-02-27T01:45:39;27.8;;;9.1;;
40012;SDS011;37387;42.672;23.334;2023-02-27T01:46:39;24.8;;;8.4;;
40012;SDS011;37387;42.672;23.334;2023-02-27T01:47:40;32.0;;;8.5;;
40012;SDS011;37387;42.672;23.334;2023-02-27T01:48:39;29.5;;;8.3;;
40012;SDS011;37387;42.672;23.334;2023-02-27T01:49:39;29.5;;;8.2;;
40012;SDS011;37387;42.672;23.334;2023-02-27T01:51:40;28.6;;;7.7;;
40012;SDS011;37387;42.672;23.334;2023-02-27T01:52:39;24.2;;;8.2;;
40012;SDS011;37387;42.672;23.334;2023-02-27T01:53:39;24.2;;;8.0;;
40012;SDS011;37387;42.672;23.334;2023-02-27T01:54:39;28.1;;;7.9;;
40012;SDS011;37387;42.672;23.334;2023-02-27T01:55:39;23.2;;;7.5;;
40012;SDS011;37387;42.672;23.334;2023-02-27T01:56:39;23.1;;;6.8;;
40012;SDS011;37387;42.672;23.334;2023-02-27T01:57:39;23.1;;;8.3;;
40012;SDS011;37387;42.672;23.334;2023-02-27T01:58:39;25.0;;;7.9;;
40012;SDS011;37387;42.672;23.334;2023-02-27T01:59:39;31.0;;;9.1;;
40012;SDS011;37387;42.672;23.334;2023-02-27T02:00:39;26.8;;;7.8;;
40012;SDS011;37387;42.672;23.334;2023-02-27T02:01:38;26.5;;;7.7;;
40012;SDS011;37387;42.672;23.334;2023-02-27T02:02:43;26.5;;;8.2;;
40012;SDS011;37387;42.672;23.334;2023-02-27T02:03:40;24.0;;;8.4;;
40012;SDS011;37387;42.672;23.334;2023-02-27T02:04:39;25.0;;;9.3;;
40012;SDS011;37387;42.672;23.334;2023-02-27T02:05:38;25.0;;;8.6;;
40012;SDS011;37387;42.672;23.334;2023-02-27T02:06:39;25.8;;;8.3;;
40012;SDS011;37387;42.672;23.334;2023-02-27T02:07:38;25.8;;;8.0;;
40012;SDS011;37387;42.672;23.334;2023-02-27T02:08:40;25.6;;;8.6;;
40012;SDS011;37387;42.672;23.334;2023-02-27T02:09:39;24.2;;;7.8;;
40012;SDS011;37387;42.672;23.334;2023-02-27T02:10:38;24.2;;;8.6;;
40012;SDS011;37387;42.672;23.334;2023-02-27T02:11:38;33.7;;;8.2;;
40012;SDS011;37387;42.672;23.334;2023-02-27T02:12:38;29.8;;;8.9;;
40012;SDS011;37387;42.672;23.334;2023-02-27T02:13:38;29.0;;;7.7;;
40012;SDS011;37387;42.672;23.334;2023-02-27T02:14:38;29.0;;;8.1;;
40012;SDS011;37387;42.672;23.334;2023-02-27T02:15:40;28.4;;;8.3;;
40012;SDS011;37387;42.672;23.334;2023-02-27T02:16:42;28.4;;;9.1;;
40012;SDS011;37387;42.672;23.334;2023-02-27T02:17:40;32.0;;;7.8;;
40012;SDS011;37387;42.672;23.334;2023-02-27T02:18:41;28.2;;;8.3;;
40012;SDS011;37387;42.672;23.334;2023-02-27T02:20:44;30.9;;;8.0;;
40012;SDS011;37387;42.672;23.334;2023-02-27T02:22:47;25.4;;;8.4;;
40012;SDS011;37387;42.672;23.334;2023-02-27T02:23:43;28.3;;;8.9;;
40012;SDS011;37387;42.672;23.334;2023-02-27T02:24:44;28.3;;;8.5;;
40012;SDS011;37387;42.672;23.334;2023-02-27T02:26:43;21.8;;;7.6;;
40012;SDS011;37387;42.672;23.334;2023-02-27T02:27:42;24.0;;;6.8;;
40012;SDS011;37387;42.672;23.334;2023-02-27T02:28:44;24.0;;;5.6;;
40012;SDS011;37387;42.672;23.334;2023-02-27T02:31:45;15.5;;;3.9;;
40012;SDS011;37387;42.672;23.334;2023-02-27T02:38:44;7.8;;;1.8;;
40012;SDS011;37387;42.672;23.334;2023-02-27T02:39:41;6.6;;;1.6;;
40012;SDS011;37387;42.672;23.334;2023-02-27T02:41:41;4.4;;;1.4;;
40012;SDS011;37387;42.672;23.334;2023-02-27T02:43:39;8.3;;;1.3;;
40012;SDS011;37387;42.672;23.334;2023-02-27T02:44:39;7.5;;;1.4;;
40012;SDS011;37387;42.672;23.334;2023-02-27T02:45:39;2.7;;;0.8;;
40012;SDS011;37387;42.672;23.334;2023-02-27T02:46:39;2.7;;;1.2;;
40012;SDS011;37387;42.672;23.334;2023-02-27T02:47:39;6.5;;;1.4;;
40012;SDS011;37387;42.672;23.334;2023-02-27T02:48:38;5.5;;;1.1;;
40012;SDS011;37387;42.672;23.334;2023-02-27T02:49:39;5.5;;;1.3;;
40012;SDS011;37387;42.672;23.334;2023-02-27T02:50:38;5.0;;;1.0;;
40012;SDS011;37387;42.672;23.334;2023-02-27T02:51:38;6.6;;;1.1;;
40012;SDS011;37387;42.672;23.334;2023-02-27T02:52:41;5.4;;;1.6;;
40012;SDS011;37387;42.672;23.334;2023-02-27T02:53:38;5.4;;;1.5;;
40012;SDS011;37387;42.672;23.334;2023-02-27T02:55:37;9.9;;;4.1;;
40012;SDS011;37387;42.672;23.334;2023-02-27T02:56:38;9.9;;;4.9;;
40012;SDS011;37387;42.672;23.334;2023-02-27T02:57:37;9.7;;;14.4;;
40012;SDS011;37387;42.672;23.334;2023-02-27T02:58:38;6.4;;;2.5;;
40012;SDS011;37387;42.672;23.334;2023-02-27T02:59:37;9.5;;;1.7;;
40012;SDS011;37387;42.672;23.334;2023-02-27T03:00:38;5.2;;;1.2;;
40012;SDS011;37387;42.672;23.334;2023-02-27T03:01:37;5.2;;;1.7;;
40012;SDS011;37387;42.672;23.334;2023-02-27T03:02:38;7.5;;;1.6;;
40012;SDS011;37387;42.672;23.334;2023-02-27T03:03:38;3.3;;;1.2;;
40012;SDS011;37387;42.672;23.334;2023-02-27T03:04:38;7.8;;;1.5;;
40012;SDS011;37387;42.672;23.334;2023-02-27T03:05:37;7.2;;;1.7;;
40012;SDS011;37387;42.672;23.334;2023-02-27T03:06:37;4.1;;;1.3;;
40012;SDS011;37387;42.672;23.334;2023-02-27T03:07:37;6.3;;;1.5;;
40012;SDS011;37387;42.672;23.334;2023-02-27T03:08:37;5.5;;;1.9;;
40012;SDS011;37387;42.672;23.334;2023-02-27T03:09:37;5.5;;;1.5;;
40012;SDS011;37387;42.672;23.334;2023-02-27T03:10:36;4.6;;;1.6;;
40012;SDS011;37387;42.672;23.334;2023-02-27T03:11:37;5.8;;;1.9;;
40012;SDS011;37387;42.672;23.334;2023-02-27T03:12:37;6.6;;;1.7;;
40012;SDS011;37387;42.672;23.334;2023-02-27T03:13:36;6.6;;;1.4;;
40012;SDS011;37387;42.672;23.334;2023-02-27T03:14:36;4.5;;;1.5;;
40012;SDS011;37387;42.672;23.334;2023-02-27T03:16:37;6.7;;;1.7;;
40012;SDS011;37387;42.672;23.334;2023-02-27T03:17:37;4.5;;;1.9;;
40012;SDS011;37387;42.672;23.334;2023-02-27T03:18:37;8.4;;;3.8;;
40012;SDS011;37387;42.672;23.334;2023-02-27T03:19:38;9.0;;;4.3;;
40012;SDS011;37387;42.672;23.334;2023-02-27T03:20:38;9.2;;;4.5;;
40012;SDS011;37387;42.672;23.334;2023-02-27T03:21:36;9.2;;;4.7;;
40012;SDS011;37387;42.672;23.334;2023-02-27T03:22:36;9.2;;;4.9;;
40012;SDS011;37387;42.672;23.334;2023-02-27T03:23:38;9.8;;;5.2;;
40012;SDS011;37387;42.672;23.334;2023-02-27T03:24:37;9.5;;;5.1;;
40012;SDS011;37387;42.672;23.334;2023-02-27T03:25:36;9.5;;;5.0;;
40012;SDS011;37387;42.672;23.334;2023-02-27T03:26:37;8.3;;;5.1;;
40012;SDS011;37387;42.672;23.334;2023-02-27T03:27:36;8.2;;;4.6;;
40012;SDS011;37387;42.672;23.334;2023-02-27T03:28:36;9.5;;;4.9;;
40012;SDS011;37387;42.672;23.334;2023-02-27T03:29:37;9.5;;;4.4;;
40012;SDS011;37387;42.672;23.334;2023-02-27T03:30:36;7.7;;;4.2;;
40012;SDS011;37387;42.672;23.334;2023-02-27T03:31:37;9.6;;;4.7;;
40012;SDS011;37387;42.672;23.334;2023-02-27T03:32:36;7.9;;;4.5;;
40012;SDS011;37387;42.672;23.334;2023-02-27T03:35:40;11.2;;;4.9;;
40012;SDS011;37387;42.672;23.334;2023-02-27T03:36:37;11.2;;;4.2;;
40012;SDS011;37387;42.672;23.334;2023-02-27T03:37:37;8.5;;;4.1;;
40012;SDS011;37387;42.672;23.334;2023-02-27T03:38:36;8.5;;;4.4;;
40012;SDS011;37387;42.672;23.334;2023-02-27T03:40:35;8.4;;;4.5;;
40012;SDS011;37387;42.672;23.334;2023-02-27T03:41:35;8.8;;;4.7;;
40012;SDS011;37387;42.672;23.334;2023-02-27T03:42:35;12.3;;;4.9;;
40012;SDS011;37387;42.672;23.334;2023-02-27T03:43:37;12.3;;;5.2;;
40012;SDS011;37387;42.672;23.334;2023-02-27T03:44:36;9.5;;;4.7;;
40012;SDS011;37387;42.672;23.334;2023-02-27T03:45:36;7.7;;;4.2;;
40012;SDS011;37387;42.672;23.334;2023-02-27T03:46:34;7.7;;;4.6;;
40012;SDS011;37387;42.672;23.334;2023-02-27T03:47:34;9.4;;;4.8;;
40012;SDS011;37387;42.672;23.334;2023-02-27T03:48:34;8.0;;;4.9;;
40012;SDS011;37387;42.672;23.334;2023-02-27T03:49:34;8.0;;;4.3;;
40012;SDS011;37387;42.672;23.334;2023-02-27T03:50:34;8.3;;;4.9;;
40012;SDS011;37387;42.672;23.334;2023-02-27T03:51:34;8.3;;;4.2;;
40012;SDS011;37387;42.672;23.334;2023-02-27T03:52:34;10.9;;;4.5;;
40012;SDS011;37387;42.672;23.334;2023-02-27T03:53:35;6.8;;;4.2;;
40012;SDS011;37387;42.672;23.334;2023-02-27T03:54:35;10.2;;;4.8;;
40012;SDS011;37387;42.672;23.334;2023-02-27T03:55:34;9.4;;;4.5;;
40012;SDS011;37387;42.672;23.334;2023-02-27T03:56:35;8.9;;;4.6;;
40012;SDS011;37387;42.672;23.334;2023-02-27T03:57:34;9.5;;;4.8;;
40012;SDS011;37387;42.672;23.334;2023-02-27T03:58:33;10.0;;;4.7;;
40012;SDS011;37387;42.672;23.334;2023-02-27T03:59:34;9.3;;;4.8;;
40012;SDS011;37387;42.672;23.334;2023-02-27T04:00:33;9.7;;;4.9;;
40012;SDS011;37387;42.672;23.334;2023-02-27T04:01:33;15.1;;;8.0;;
40012;SDS011;37387;42.672;23.334;2023-02-27T04:02:33;51.2;;;26.9;;
40012;SDS011;37387;42.672;23.334;2023-02-27T04:03:34;12.6;;;7.4;;
40012;SDS011;37387;42.672;23.334;2023-02-27T04:04:33;9.9;;;4.9;;
40012;SDS011;37387;42.672;23.334;2023-02-27T04:05:33;7.9;;;4.5;;
40012;SDS011;37387;42.672;23.334;2023-02-27T04:06:33;8.3;;;4.4;;
40012;SDS011;37387;42.672;23.334;2023-02-27T04:07:34;8.3;;;4.3;;
40012;SDS011;37387;42.672;23.334;2023-02-27T04:08:38;8.6;;;4.0;;
40012;SDS011;37387;42.672;23.334;2023-02-27T04:09:38;6.9;;;4.1;;
40012;SDS011;37387;42.672;23.334;2023-02-27T04:10:39;6.9;;;4.3;;
40012;SDS011;37387;42.672;23.334;2023-02-27T04:11:34;8.3;;;4.0;;
40012;SDS011;37387;42.672;23.334;2023-02-27T04:12:37;8.2;;;4.3;;
40012;SDS011;37387;42.672;23.334;2023-02-27T04:13:38;8.6;;;4.6;;
40012;SDS011;37387;42.672;23.334;2023-02-27T04:14:35;6.0;;;4.0;;
40012;SDS011;37387;42.672;23.334;2023-02-27T04:15:34;6.0;;;4.2;;
40012;SDS011;37387;42.672;23.334;2023-02-27T04:16:38;7.6;;;4.1;;
40012;SDS011;37387;42.672;23.334;2023-02-27T04:17:33;8.4;;;4.4;;
40012;SDS011;37387;42.672;23.334;2023-02-27T04:18:36;8.4;;;4.0;;
40012;SDS011;37387;42.672;23.334;2023-02-27T04:20:36;8.1;;;4.2;;
40012;SDS011;37387;42.672;23.334;2023-02-27T04:21:33;7.2;;;4.3;;
40012;SDS011;37387;42.672;23.334;2023-02-27T04:23:33;8.5;;;3.9;;
40012;SDS011;37387;42.672;23.334;2023-02-27T04:24:34;7.5;;;4.5;;
40012;SDS011;37387;42.672;23.334;2023-02-27T04:25:36;9.8;;;4.6;;
40012;SDS011;37387;42.672;23.334;2023-02-27T04:26:32;9.1;;;4.3;;
40012;SDS011;37387;42.672;23.334;2023-02-27T04:27:34;6.6;;;4.1;;
40012;SDS011;37387;42.672;23.334;2023-02-27T04:28:34;9.1;;;4.8;;
40012;SDS011;37387;42.672;23.334;2023-02-27T04:29:33;8.6;;;4.3;;
40012;SDS011;37387;42.672;23.334;2023-02-27T04:31:33;8.0;;;4.7;;
40012;SDS011;37387;42.672;23.334;2023-02-27T04:32:32;8.2;;;4.9;;
40012;SDS011;37387;42.672;23.334;2023-02-27T04:33:35;7.5;;;4.7;;
40012;SDS011;37387;42.672;23.334;2023-02-27T04:34:32;7.5;;;5.1;;
40012;SDS011;37387;42.672;23.334;2023-02-27T04:35:32;10.8;;;4.7;;
40012;SDS011;37387;42.672;23.334;2023-02-27T04:36:32;8.4;;;4.5;;
40012;SDS011;37387;42.672;23.334;2023-02-27T04:37:32;7.3;;;4.3;;
40012;SDS011;37387;42.672;23.334;2023-02-27T04:38:33;8.2;;;3.9;;
40012;SDS011;37387;42.672;23.334;2023-02-27T04:39:32;7.1;;;4.1;;
40012;SDS011;37387;42.672;23.334;2023-02-27T04:40:32;7.1;;;5.9;;
40012;SDS011;37387;42.672;23.334;2023-02-27T04:41:31;11.7;;;3.8;;
40012;SDS011;37387;42.672;23.334;2023-02-27T04:42:32;6.8;;;3.7;;
40012;SDS011;37387;42.672;23.334;2023-02-27T04:43:31;8.8;;;4.3;;
40012;SDS011;37387;42.672;23.334;2023-02-27T04:44:31;8.8;;;4.0;;
40012;SDS011;37387;42.672;23.334;2023-02-27T04:45:30;7.1;;;4.4;;
40012;SDS011;37387;42.672;23.334;2023-02-27T04:48:31;8.7;;;3.8;;
40012;SDS011;37387;42.672;23.334;2023-02-27T04:50:32;6.5;;;4.0;;
40012;SDS011;37387;42.672;23.334;2023-02-27T04:51:31;6.9;;;3.9;;
40012;SDS011;37387;42.672;23.334;2023-02-27T04:52:32;7.3;;;3.5;;
40012;SDS011;37387;42.672;23.334;2023-02-27T04:53:31;7.3;;;3.3;;
40012;SDS011;37387;42.672;23.334;2023-02-27T04:54:30;6.6;;;3.6;;
40012;SDS011;37387;42.672;23.334;2023-02-27T04:55:31;5.5;;;3.2;;
40012;SDS011;37387;42.672;23.334;2023-02-27T04:56:31;5.5;;;3.3;;
40012;SDS011;37387;42.672;23.334;2023-02-27T04:57:31;6.6;;;3.4;;
40012;SDS011;37387;42.672;23.334;2023-02-27T04:58:31;6.6;;;3.3;;
40012;SDS011;37387;42.672;23.334;2023-02-27T04:59:31;5.6;;;3.1;;
40012;SDS011;37387;42.672;23.334;2023-02-27T05:00:30;4.5;;;3.0;;
40012;SDS011;37387;42.672;23.334;2023-02-27T05:01:32;6.6;;;3.4;;
40012;SDS011;37387;42.672;23.334;2023-02-27T05:02:30;6.5;;;3.3;;
40012;SDS011;37387;42.672;23.334;2023-02-27T05:03:31;6.5;;;2.7;;
40012;SDS011;37387;42.672;23.334;2023-02-27T05:04:30;5.1;;;2.8;;
40012;SDS011;37387;42.672;23.334;2023-02-27T05:06:29;5.1;;;2.9;;
40012;SDS011;37387;42.672;23.334;2023-02-27T05:07:30;5.2;;;3.2;;
40012;SDS011;37387;42.672;23.334;2023-02-27T05:08:32;4.3;;;2.7;;
40012;SDS011;37387;42.672;23.334;2023-02-27T05:09:30;5.0;;;2.5;;
40012;SDS011;37387;42.672;23.334;2023-02-27T05:10:31;5.6;;;3.2;;
40012;SDS011;37387;42.672;23.334;2023-02-27T05:12:30;6.2;;;3.1;;
40012;SDS011;37387;42.672;23.334;2023-02-27T05:13:30;6.2;;;2.6;;
40012;SDS011;37387;42.672;23.334;2023-02-27T05:14:30;4.3;;;2.5;;
40012;SDS011;37387;42.672;23.334;2023-02-27T05:15:29;5.6;;;3.0;;
40012;SDS011;37387;42.672;23.334;2023-02-27T05:16:29;5.6;;;2.6;;
40012;SDS011;37387;42.672;23.334;2023-02-27T05:17:29;4.2;;;2.5;;
40012;SDS011;37387;42.672;23.334;2023-02-27T05:18:28;4.3;;;2.7;;
40012;SDS011;37387;42.672;23.334;2023-02-27T05:19:28;6.3;;;2.6;;
40012;SDS011;37387;42.672;23.334;2023-02-27T05:20:30;4.7;;;2.8;;
40012;SDS011;37387;42.672;23.334;2023-02-27T05:21:29;5.2;;;2.4;;
40012;SDS011;37387;42.672;23.334;2023-02-27T05:23:31;3.5;;;2.5;;
40012;SDS011;37387;42.672;23.334;2023-02-27T05:24:30;3.5;;;2.1;;
40012;SDS011;37387;42.672;23.334;2023-02-27T05:26:30;4.0;;;2.0;;
40012;SDS011;37387;42.672;23.334;2023-02-27T05:27:29;3.4;;;16.6;;
40012;SDS011;37387;42.672;23.334;2023-02-27T05:28:29;14.0;;;8.5;;
40012;SDS011;37387;42.672;23.334;2023-02-27T05:29:29;8.0;;;4.6;;
40012;SDS011;37387;42.672;23.334;2023-02-27T05:30:29;4.1;;;2.8;;
40012;SDS011;37387;42.672;23.334;2023-02-27T05:31:29;7.1;;;4.2;;
40012;SDS011;37387;42.672;23.334;2023-02-27T05:32:30;3.8;;;2.4;;
40012;SDS011;37387;42.672;23.334;2023-02-27T05:33:28;4.4;;;2.1;;
40012;SDS011;37387;42.672;23.334;2023-02-27T05:34:28;3.8;;;2.3;;
40012;SDS011;37387;42.672;23.334;2023-02-27T05:35:28;3.8;;;2.6;;
40012;SDS011;37387;42.672;23.334;2023-02-27T05:36:29;4.7;;;2.8;;
40012;SDS011;37387;42.672;23.334;2023-02-27T05:37:27;4.4;;;2.7;;
40012;SDS011;37387;42.672;23.334;2023-02-27T05:38:28;3.8;;;2.2;;
40012;SDS011;37387;42.672;23.334;2023-02-27T05:39:28;3.6;;;2.3;;
40012;SDS011;37387;42.672;23.334;2023-02-27T05:40:28;3.6;;;2.7;;
40012;SDS011;37387;42.672;23.334;2023-02-27T05:41:27;5.3;;;2.6;;
40012;SDS011;37387;42.672;23.334;2023-02-27T05:44:27;3.9;;;2.5;;
40012;SDS011;37387;42.672;23.334;2023-02-27T05:45:27;3.8;;;2.4;;
40012;SDS011;37387;42.672;23.334;2023-02-27T05:46:27;4.1;;;2.8;;
40012;SDS011;37387;42.672;23.334;2023-02-27T05:47:27;4.1;;;2.4;;
40012;SDS011;37387;42.672;23.334;2023-02-27T05:48:27;3.7;;;2.6;;
40012;SDS011;37387;42.672;23.334;2023-02-27T05:49:27;31.9;;;19.1;;
40012;SDS011;37387;42.672;23.334;2023-02-27T05:50:27;31.9;;;17.1;;
40012;SDS011;37387;42.672;23.334;2023-02-27T05:51:27;26.9;;;6.0;;
40012;SDS011;37387;42.672;23.334;2023-02-27T05:52:26;14.1;;;7.0;;
40012;SDS011;37387;42.672;23.334;2023-02-27T05:53:27;7.0;;;4.2;;
40012;SDS011;37387;42.672;23.334;2023-02-27T05:54:28;4.1;;;2.7;;
40012;SDS011;37387;42.672;23.334;2023-02-27T05:55:26;3.5;;;2.4;;
40012;SDS011;37387;42.672;23.334;2023-02-27T05:56:26;3.5;;;2.1;;
40012;SDS011;37387;42.672;23.334;2023-02-27T05:57:28;4.2;;;2.3;;
40012;SDS011;37387;42.672;23.334;2023-02-27T05:58:27;4.2;;;2.6;;
40012;SDS011;37387;42.672;23.334;2023-02-27T05:59:26;4.5;;;2.5;;
40012;SDS011;37387;42.672;23.334;2023-02-27T06:00:27;3.4;;;2.3;;
40012;SDS011;37387;42.672;23.334;2023-02-27T06:01:26;5.4;;;3.4;;
40012;SDS011;37387;42.672;23.334;2023-02-27T06:02:25;4.3;;;2.8;;
40012;SDS011;37387;42.672;23.334;2023-02-27T06:03:26;4.6;;;3.0;;
40012;SDS011;37387;42.672;23.334;2023-02-27T06:04:25;4.6;;;2.5;;
40012;SDS011;37387;42.672;23.334;2023-02-27T06:05:25;3.3;;;2.4;;
40012;SDS011;37387;42.672;23.334;2023-02-27T06:06:25;3.3;;;2.1;;
40012;SDS011;37387;42.672;23.334;2023-02-27T06:07:25;4.3;;;2.3;;
40012;SDS011;37387;42.672;23.334;2023-02-27T06:08:26;4.7;;;2.8;;
40012;SDS011;37387;42.672;23.334;2023-02-27T06:09:25;4.7;;;2.5;;
40012;SDS011;37387;42.672;23.334;2023-02-27T06:11:25;3.5;;;2.7;;
40012;SDS011;37387;42.672;23.334;2023-02-27T06:12:25;5.0;;;2.5;;
40012;SDS011;37387;42.672;23.334;2023-02-27T06:13:25;5.6;;;2.6;;
40012;SDS011;37387;42.672;23.334;2023-02-27T06:14:25;5.6;;;2.3;;
40012;SDS011;37387;42.672;23.334;2023-02-27T06:15:25;3.4;;;2.7;;
40012;SDS011;37387;42.672;23.334;2023-02-27T06:17:25;6.1;;;2.5;;
40012;SDS011;37387;42.672;23.334;2023-02-27T06:18:25;3.2;;;2.3;;
40012;SDS011;37387;42.672;23.334;2023-02-27T06:19:25;3.2;;;2.4;;
40012;SDS011;37387;42.672;23.334;2023-02-27T06:20:25;3.8;;;2.6;;
40012;SDS011;37387;42.672;23.334;2023-02-27T06:21:25;4.3;;;2.2;;
40012;SDS011;37387;42.672;23.334;2023-02-27T06:22:25;4.7;;;2.3;;
40012;SDS011;37387;42.672;23.334;2023-02-27T06:23:25;4.7;;;2.7;;
40012;SDS011;37387;42.672;23.334;2023-02-27T06:24:25;4.5;;;3.4;;
40012;SDS011;37387;42.672;23.334;2023-02-27T06:25:25;63.1;;;35.8;;
40012;SDS011;37387;42.672;23.334;2023-02-27T06:26:25;63.1;;;6.6;;
40012;SDS011;37387;42.672;23.334;2023-02-27T06:27:25;12.3;;;8.8;;
40012;SDS011;37387;42.672;23.334;2023-02-27T06:28:25;16.8;;;3.3;;
40012;SDS011;37387;42.672;23.334;2023-02-27T06:29:25;5.4;;;2.4;;
40012;SDS011;37387;42.672;23.334;2023-02-27T06:30:25;4.3;;;2.9;;
40012;SDS011;37387;42.672;23.334;2023-02-27T06:31:24;4.4;;;2.5;;
40012;SDS011;37387;42.672;23.334;2023-02-27T06:32:24;4.3;;;2.7;;
40012;SDS011;37387;42.672;23.334;2023-02-27T06:35:24;4.0;;;2.4;;
40012;SDS011;37387;42.672;23.334;2023-02-27T06:36:24;4.2;;;2.6;;
40012;SDS011;37387;42.672;23.334;2023-02-27T06:37:24;3.4;;;2.3;;
40012;SDS011;37387;42.672;23.334;2023-02-27T06:39:24;4.2;;;2.7;;
40012;SDS011;37387;42.672;23.334;2023-02-27T06:40:24;4.2;;;2.8;;
40012;SDS011;37387;42.672;23.334;2023-02-27T06:41:24;4.1;;;2.4;;
40012;SDS011;37387;42.672;23.334;2023-02-27T06:42:24;3.8;;;2.6;;
40012;SDS011;37387;42.672;23.334;2023-02-27T06:43:24;3.8;;;2.9;;
40012;SDS011;37387;42.672;23.334;2023-02-27T06:44:24;3.7;;;2.8;;
40012;SDS011;37387;42.672;23.334;2023-02-27T06:45:24;3.9;;;2.7;;
40012;SDS011;37387;42.672;23.334;2023-02-27T06:46:24;3.6;;;2.4;;
40012;SDS011;37387;42.672;23.334;2023-02-27T06:47:24;4.5;;;2.7;;
40012;SDS011;37387;42.672;23.334;2023-02-27T06:48:24;4.5;;;2.8;;
40012;SDS011;37387;42.672;23.334;2023-02-27T06:49:24;3.9;;;2.5;;